CheckWX is a tool to help pilots better visualize weather data.  It is not intended as a substitute for an official pre-flight weather briefing.

12:23:23 UTC

KLGU METAR
Logan-Cache Airport
Logan, Utah, USA
Current

32 mins ago

KLGU 221151Z AUTO 21003KT 10SM BKN090 OVC120 M09/M13 A2984 RMK AO2 SLP141 T10941133 11072 21111 53012
Observed
Feb-22 @ 11:51 UTC
Wind
  • 210° at 3 KTS
Visibility
10 SM
Flight Rules
VFR
Cloud Levels
  • Broken at 9,000' AGL
  • Overcast at 12,000' AGL
Temperature
-9°C / 16°F
Dewpoint
-13°C / 9°F
Humidity
73%
Altimeter
29.84" Hg
Pressure
1014.1 hPa
Previous

2 hours ago

KLGU 221051Z AUTO 26003KT 10SM FEW070 OVC100 M10/M14 A2982 RMK AO2 SLP136 T11001139
Observed
Feb-22 @ 10:51 UTC
Wind
  • 260° at 3 KTS
Visibility
10 SM
Flight Rules
VFR
Cloud Levels
  • Few at 7,000' AGL
  • Overcast at 10,000' AGL
Temperature
-10°C / 14°F
Dewpoint
-14°C / 7°F
Humidity
73%
Altimeter
29.82" Hg
Pressure
1013.6 hPa
Previous

3 hours ago

KLGU 220951Z AUTO 36004KT 10SM CLR M11/M14 A2981 RMK AO2 SLP136 T11061139
Observed
Feb-22 @ 09:51 UTC
Wind
  • 360° at 4 KTS
Visibility
10 SM
Flight Rules
VFR
Cloud Levels
  • Clear skies
Temperature
-11°C / 12°F
Dewpoint
-14°C / 7°F
Humidity
79%
Altimeter
29.81" Hg
Pressure
1013.6 hPa